sensor_id;sensor_type;location;lat;lon;timestamp;pressure;altitude;pressure_sealevel;temperature;humidity
13709;BME280;54933;51.908;7.730;2022-08-03T00:01:17;100946.03;;;24.97;100.00
13709;BME280;54933;51.908;7.730;2022-08-03T00:03:43;100945.19;;;24.97;100.00
13709;BME280;54933;51.908;7.730;2022-08-03T00:06:08;100951.47;;;24.97;100.00
13709;BME280;54933;51.908;7.730;2022-08-03T00:08:34;100950.63;;;24.97;100.00
13709;BME280;54933;51.908;7.730;2022-08-03T00:10:59;100946.03;;;24.97;100.00
13709;BME280;54933;51.908;7.730;2022-08-03T00:13:25;100946.03;;;24.97;100.00
13709;BME280;54933;51.908;7.730;2022-08-03T00:15:50;100946.03;;;24.97;100.00
13709;BME280;54933;51.908;7.730;2022-08-03T00:18:15;100934.31;;;24.97;100.00
13709;BME280;54933;51.908;7.730;2022-08-03T00:20:41;100938.09;;;24.96;100.00
13709;BME280;54933;51.908;7.730;2022-08-03T00:23:06;100934.31;;;24.97;100.00
13709;BME280;54933;51.908;7.730;2022-08-03T00:25:33;100935.16;;;24.97;100.00
13709;BME280;54933;51.908;7.730;2022-08-03T00:27:59;100934.31;;;24.97;100.00
13709;BME280;54933;51.908;7.730;2022-08-03T00:30:24;100927.22;;;24.96;100.00
13709;BME280;54933;51.908;7.730;2022-08-03T00:32:50;100924.28;;;24.97;100.00
13709;BME280;54933;51.908;7.730;2022-08-03T00:35:15;100929.72;;;24.97;100.00
13709;BME280;54933;51.908;7.730;2022-08-03T00:37:40;100916.91;;;24.98;100.00
13709;BME280;54933;51.908;7.730;2022-08-03T00:40:06;100918.84;;;24.97;100.00
13709;BME280;54933;51.908;7.730;2022-08-03T00:42:31;100920.47;;;24.98;100.00
13709;BME280;54933;51.908;7.730;2022-08-03T00:44:57;100925.06;;;24.98;100.00
13709;BME280;54933;51.908;7.730;2022-08-03T00:47:22;100924.28;;;24.97;100.00
13709;BME280;54933;51.908;7.730;2022-08-03T00:49:47;100911.47;;;24.98;100.00
13709;BME280;54933;51.908;7.730;2022-08-03T00:52:14;100920.47;;;24.98;100.00
13709;BME280;54933;51.908;7.730;2022-08-03T00:54:40;100916.91;;;24.98;100.00
13709;BME280;54933;51.908;7.730;2022-08-03T00:57:06;100915.88;;;24.99;100.00
13709;BME280;54933;51.908;7.730;2022-08-03T00:59:31;100919.63;;;24.98;100.00
13709;BME280;54933;51.908;7.730;2022-08-03T01:01:57;100914.19;;;24.98;100.00
13709;BME280;54933;51.908;7.730;2022-08-03T01:04:22;100913.41;;;24.97;100.00
13709;BME280;54933;51.908;7.730;2022-08-03T01:06:54;100915.88;;;24.99;100.00
13709;BME280;54933;51.908;7.730;2022-08-03T01:12:37;100916.91;;;24.98;100.00
13709;BME280;54933;51.908;7.730;2022-08-03T01:15:12;100908.75;;;24.98;100.00
13709;BME280;54933;51.908;7.730;2022-08-03T01:17:50;100908.75;;;24.98;100.00
13709;BME280;54933;51.908;7.730;2022-08-03T01:20:19;100906.03;;;24.98;100.00
13709;BME280;54933;51.908;7.730;2022-08-03T01:26:03;100911.47;;;24.98;100.00
13709;BME280;54933;51.908;7.730;2022-08-03T01:31:21;100908.75;;;24.98;100.00
13709;BME280;54933;51.908;7.730;2022-08-03T01:33:52;100907.97;;;24.97;100.00
13709;BME280;54933;51.908;7.730;2022-08-03T01:36:23;100903.31;;;24.98;100.00
13709;BME280;54933;51.908;7.730;2022-08-03T01:38:53;100908.75;;;24.98;100.00
13709;BME280;54933;51.908;7.730;2022-08-03T01:41:31;100910.44;;;24.99;100.00
13709;BME280;54933;51.908;7.730;2022-08-03T01:43:59;100907.13;;;24.97;100.00
13709;BME280;54933;51.908;7.730;2022-08-03T01:46:25;100910.69;;;24.97;100.00
13709;BME280;54933;51.908;7.730;2022-08-03T01:48:51;100898.97;;;24.97;100.00
13709;BME280;54933;51.908;7.730;2022-08-03T01:51:19;100897.09;;;24.97;100.00
13709;BME280;54933;51.908;7.730;2022-08-03T01:53:45;100905.00;;;24.99;100.00
13709;BME280;54933;51.908;7.730;2022-08-03T01:56:12;100900.59;;;24.98;100.00
13709;BME280;54933;51.908;7.730;2022-08-03T01:58:39;100892.44;;;24.98;100.00
13709;BME280;54933;51.908;7.730;2022-08-03T02:01:05;100887.00;;;24.98;100.00
13709;BME280;54933;51.908;7.730;2022-08-03T02:03:36;100897.88;;;24.98;100.00
13709;BME280;54933;51.908;7.730;2022-08-03T02:06:02;100894.13;;;24.99;100.00
13709;BME280;54933;51.908;7.730;2022-08-03T02:08:29;100896.84;;;24.99;100.00
13709;BME280;54933;51.908;7.730;2022-08-03T02:10:56;100906.63;;;25.00;100.00
13709;BME280;54933;51.908;7.730;2022-08-03T02:13:23;100903.31;;;24.98;100.00
13709;BME280;54933;51.908;7.730;2022-08-03T02:15:51;100903.31;;;24.98;100.00
13709;BME280;54933;51.908;7.730;2022-08-03T02:18:19;100904.16;;;24.98;100.00
13709;BME280;54933;51.908;7.730;2022-08-03T02:20:45;100903.31;;;24.98;100.00
13709;BME280;54933;51.908;7.730;2022-08-03T02:23:11;100897.09;;;24.97;100.00
13709;BME280;54933;51.908;7.730;2022-08-03T02:25:42;100906.88;;;24.98;100.00
13709;BME280;54933;51.908;7.730;2022-08-03T02:28:11;100905.00;;;24.99;100.00
13709;BME280;54933;51.908;7.730;2022-08-03T02:30:39;100909.59;;;24.98;100.00
13709;BME280;54933;51.908;7.730;2022-08-03T02:33:10;100905.84;;;24.99;100.00
13709;BME280;54933;51.908;7.730;2022-08-03T02:35:38;100910.44;;;24.99;100.00
13709;BME280;54933;51.908;7.730;2022-08-03T02:38:06;100905.84;;;24.99;100.00
13709;BME280;54933;51.908;7.730;2022-08-03T02:40:32;100910.44;;;24.99;100.00
13709;BME280;54933;51.908;7.730;2022-08-03T02:42:59;100908.56;;;24.99;100.00
13709;BME280;54933;51.908;7.730;2022-08-03T02:45:27;100906.63;;;25.00;100.00
13709;BME280;54933;51.908;7.730;2022-08-03T02:47:56;100910.44;;;24.99;100.00
13709;BME280;54933;51.908;7.730;2022-08-03T02:50:23;100904.16;;;24.98;100.00
13709;BME280;54933;51.908;7.730;2022-08-03T02:52:51;100895.75;;;25.00;100.00
13709;BME280;54933;51.908;7.730;2022-08-03T02:55:18;100891.41;;;24.99;100.00
13709;BME280;54933;51.908;7.730;2022-08-03T02:57:45;100895.75;;;25.00;100.00
13709;BME280;54933;51.908;7.730;2022-08-03T03:00:11;100885.97;;;24.99;100.00
13709;BME280;54933;51.908;7.730;2022-08-03T03:02:39;100891.41;;;24.99;100.00
13709;BME280;54933;51.908;7.730;2022-08-03T03:05:05;100884.09;;;24.99;100.00
13709;BME280;54933;51.908;7.730;2022-08-03T03:07:31;100883.25;;;24.99;100.00
13709;BME280;54933;51.908;7.730;2022-08-03T03:09:57;100883.25;;;24.99;100.00
13709;BME280;54933;51.908;7.730;2022-08-03T03:12:24;100885.97;;;24.99;100.00
13709;BME280;54933;51.908;7.730;2022-08-03T03:14:51;100883.25;;;24.99;100.00
13709;BME280;54933;51.908;7.730;2022-08-03T03:17:17;100891.16;;;25.00;100.00
13709;BME280;54933;51.908;7.730;2022-08-03T03:19:44;100889.53;;;24.99;100.00
13709;BME280;54933;51.908;7.730;2022-08-03T03:22:10;100877.81;;;24.99;100.00
13709;BME280;54933;51.908;7.730;2022-08-03T03:24:36;100888.69;;;24.99;100.00
13709;BME280;54933;51.908;7.730;2022-08-03T03:27:02;100894.13;;;24.99;100.00
13709;BME280;54933;51.908;7.730;2022-08-03T03:29:28;100894.13;;;24.99;100.00
13709;BME280;54933;51.908;7.730;2022-08-03T03:31:54;100885.97;;;24.99;100.00
13709;BME280;54933;51.908;7.730;2022-08-03T03:34:21;100892.25;;;24.99;100.00
13709;BME280;54933;51.908;7.730;2022-08-03T03:36:46;100891.41;;;24.99;100.00
13709;BME280;54933;51.908;7.730;2022-08-03T03:39:12;100891.41;;;24.99;100.00
13709;BME280;54933;51.908;7.730;2022-08-03T03:41:38;100893.28;;;24.98;100.00
13709;BME280;54933;51.908;7.730;2022-08-03T03:44:04;100888.69;;;24.99;100.00
13709;BME280;54933;51.908;7.730;2022-08-03T03:46:30;100894.13;;;24.99;100.00
13709;BME280;54933;51.908;7.730;2022-08-03T03:48:56;100893.28;;;24.98;100.00
13709;BME280;54933;51.908;7.730;2022-08-03T03:51:21;100897.88;;;24.98;100.00
13709;BME280;54933;51.908;7.730;2022-08-03T03:53:56;100892.44;;;24.98;100.00
13709;BME280;54933;51.908;7.730;2022-08-03T03:56:22;100896.00;;;24.98;100.00
13709;BME280;54933;51.908;7.730;2022-08-03T03:58:48;100897.88;;;24.98;100.00
13709;BME280;54933;51.908;7.730;2022-08-03T04:01:13;100894.13;;;24.99;100.00
13709;BME280;54933;51.908;7.730;2022-08-03T04:03:38;100894.13;;;24.99;100.00
13709;BME280;54933;51.908;7.730;2022-08-03T04:06:04;100892.44;;;24.98;100.00
13709;BME280;54933;51.908;7.730;2022-08-03T04:08:48;100899.56;;;24.99;100.00
13709;BME280;54933;51.908;7.730;2022-08-03T04:11:38;100903.31;;;24.98;100.00
13709;BME280;54933;51.908;7.730;2022-08-03T04:14:11;100906.88;;;24.98;100.00
13709;BME280;54933;51.908;7.730;2022-08-03T04:16:39;100903.31;;;24.98;100.00
13709;BME280;54933;51.908;7.730;2022-08-03T04:19:08;100902.53;;;24.97;100.00
13709;BME280;54933;51.908;7.730;2022-08-03T04:21:37;100903.31;;;24.98;100.00
13709;BME280;54933;51.908;7.730;2022-08-03T04:24:05;100897.09;;;24.97;100.00
13709;BME280;54933;51.908;7.730;2022-08-03T04:26:35;100895.16;;;24.98;100.00
13709;BME280;54933;51.908;7.730;2022-08-03T04:29:01;100898.97;;;24.97;100.00
13709;BME280;54933;51.908;7.730;2022-08-03T04:31:28;100900.59;;;24.98;100.00
13709;BME280;54933;51.908;7.730;2022-08-03T04:33:54;100905.00;;;24.99;100.00
13709;BME280;54933;51.908;7.730;2022-08-03T04:36:21;100911.28;;;24.99;100.00
13709;BME280;54933;51.908;7.730;2022-08-03T04:39:12;100909.34;;;25.00;100.00
13709;BME280;54933;51.908;7.730;2022-08-03T04:41:38;100897.88;;;24.98;100.00
13709;BME280;54933;51.908;7.730;2022-08-03T04:44:05;100902.28;;;24.99;100.00
13709;BME280;54933;51.908;7.730;2022-08-03T04:46:34;100904.16;;;24.98;100.00
13709;BME280;54933;51.908;7.730;2022-08-03T04:49:01;100910.44;;;24.99;100.00
13709;BME280;54933;51.908;7.730;2022-08-03T04:51:27;100910.44;;;24.99;100.00
13709;BME280;54933;51.908;7.730;2022-08-03T04:53:53;100902.28;;;24.99;100.00
13709;BME280;54933;51.908;7.730;2022-08-03T04:56:19;100905.00;;;24.99;100.00
13709;BME280;54933;51.908;7.730;2022-08-03T04:58:44;100907.72;;;24.99;100.00
13709;BME280;54933;51.908;7.730;2022-08-03T05:01:09;100908.75;;;24.98;100.00
13709;BME280;54933;51.908;7.730;2022-08-03T05:03:35;100916.72;;;24.99;100.00
13709;BME280;54933;51.908;7.730;2022-08-03T05:06:00;100914.00;;;24.99;100.00
13709;BME280;54933;51.908;7.730;2022-08-03T05:08:26;100910.44;;;24.99;100.00
13709;BME280;54933;51.908;7.730;2022-08-03T05:10:51;100916.72;;;24.99;100.00
13709;BME280;54933;51.908;7.730;2022-08-03T05:13:16;100919.44;;;24.99;100.00
13709;BME280;54933;51.908;7.730;2022-08-03T05:15:41;100921.31;;;24.99;100.00
13709;BME280;54933;51.908;7.730;2022-08-03T05:18:07;100922.94;;;25.00;100.00
13709;BME280;54933;51.908;7.730;2022-08-03T05:20:32;100924.88;;;24.99;100.00
13709;BME280;54933;51.908;7.730;2022-08-03T05:22:57;100921.31;;;24.99;100.00
13709;BME280;54933;51.908;7.730;2022-08-03T05:25:25;100929.47;;;24.99;100.00
13709;BME280;54933;51.908;7.730;2022-08-03T05:27:50;100914.00;;;24.99;100.00
13709;BME280;54933;51.908;7.730;2022-08-03T05:30:16;100921.31;;;24.99;100.00
13709;BME280;54933;51.908;7.730;2022-08-03T05:32:41;100925.06;;;24.98;100.00
13709;BME280;54933;51.908;7.730;2022-08-03T05:35:07;100919.63;;;24.98;100.00
13709;BME280;54933;51.908;7.730;2022-08-03T05:37:32;100922.34;;;24.98;100.00
13709;BME280;54933;51.908;7.730;2022-08-03T05:39:57;100915.03;;;24.98;100.00
13709;BME280;54933;51.908;7.730;2022-08-03T05:42:23;100915.03;;;24.98;100.00
13709;BME280;54933;51.908;7.730;2022-08-03T05:44:48;100915.03;;;24.98;100.00
13709;BME280;54933;51.908;7.730;2022-08-03T05:47:13;100919.63;;;24.98;100.00
13709;BME280;54933;51.908;7.730;2022-08-03T05:49:38;100925.91;;;24.98;100.00
13709;BME280;54933;51.908;7.730;2022-08-03T05:52:04;100922.34;;;24.98;100.00
13709;BME280;54933;51.908;7.730;2022-08-03T05:54:29;100915.03;;;24.98;100.00
13709;BME280;54933;51.908;7.730;2022-08-03T05:56:54;100919.63;;;24.98;100.00
13709;BME280;54933;51.908;7.730;2022-08-03T05:59:20;100929.47;;;24.99;100.00
13709;BME280;54933;51.908;7.730;2022-08-03T06:01:46;100930.50;;;24.98;100.00
13709;BME280;54933;51.908;7.730;2022-08-03T06:04:11;100928.63;;;24.98;100.00
13709;BME280;54933;51.908;7.730;2022-08-03T06:06:36;100926.75;;;24.99;100.00
13709;BME280;54933;51.908;7.730;2022-08-03T06:09:02;100924.88;;;24.99;100.00
13709;BME280;54933;51.908;7.730;2022-08-03T06:11:27;100924.88;;;24.99;100.00
13709;BME280;54933;51.908;7.730;2022-08-03T06:13:52;100926.75;;;24.99;100.00
13709;BME280;54933;51.908;7.730;2022-08-03T06:16:17;100930.31;;;24.99;100.00
13709;BME280;54933;51.908;7.730;2022-08-03T06:18:43;100924.03;;;24.99;100.00
13709;BME280;54933;51.908;7.730;2022-08-03T06:21:08;100927.59;;;24.99;100.00
13709;BME280;54933;51.908;7.730;2022-08-03T06:23:34;100924.03;;;24.99;100.00
13709;BME280;54933;51.908;7.730;2022-08-03T06:26:00;100926.75;;;24.99;100.00
13709;BME280;54933;51.908;7.730;2022-08-03T06:28:25;100927.59;;;24.99;100.00
13709;BME280;54933;51.908;7.730;2022-08-03T06:30:50;100932.19;;;24.99;100.00
13709;BME280;54933;51.908;7.730;2022-08-03T06:33:16;100932.19;;;24.99;100.00
13709;BME280;54933;51.908;7.730;2022-08-03T06:35:41;100928.38;;;25.00;100.00
13709;BME280;54933;51.908;7.730;2022-08-03T06:38:07;100933.81;;;25.00;100.00
13709;BME280;54933;51.908;7.730;2022-08-03T06:40:34;100932.78;;;25.01;100.00
13709;BME280;54933;51.908;7.730;2022-08-03T06:43:04;100932.78;;;25.01;100.00
13709;BME280;54933;51.908;7.730;2022-08-03T06:45:30;100928.38;;;25.00;100.00
13709;BME280;54933;51.908;7.730;2022-08-03T06:48:06;100929.22;;;25.00;100.00
13709;BME280;54933;51.908;7.730;2022-08-03T06:50:34;100929.22;;;25.00;100.00
13709;BME280;54933;51.908;7.730;2022-08-03T06:53:00;100923.78;;;25.00;100.00
13709;BME280;54933;51.908;7.730;2022-08-03T06:55:26;100930.06;;;25.01;100.00
13709;BME280;54933;51.908;7.730;2022-08-03T06:57:52;100931.69;;;25.02;100.00
13709;BME280;54933;51.908;7.730;2022-08-03T07:00:17;100923.78;;;25.00;100.00
13709;BME280;54933;51.908;7.730;2022-08-03T07:02:43;100930.06;;;25.01;100.00
13709;BME280;54933;51.908;7.730;2022-08-03T07:05:09;100932.78;;;25.01;100.00
13709;BME280;54933;51.908;7.730;2022-08-03T07:07:35;100935.50;;;25.01;100.00
13709;BME280;54933;51.908;7.730;2022-08-03T07:10:00;100934.44;;;25.02;100.00
13709;BME280;54933;51.908;7.730;2022-08-03T07:12:26;100934.44;;;25.02;100.00
13709;BME280;54933;51.908;7.730;2022-08-03T07:14:53;100930.88;;;25.01;100.00
13709;BME280;54933;51.908;7.730;2022-08-03T07:17:18;100931.69;;;25.02;100.00
13709;BME280;54933;51.908;7.730;2022-08-03T07:19:43;100939.88;;;25.02;100.00
13709;BME280;54933;51.908;7.730;2022-08-03T07:22:09;100930.06;;;25.01;100.00
13709;BME280;54933;51.908;7.730;2022-08-03T07:24:35;100943.41;;;25.02;100.00
13709;BME280;54933;51.908;7.730;2022-08-03T07:27:01;100940.94;;;25.01;100.00
13709;BME280;54933;51.908;7.730;2022-08-03T07:29:26;100943.41;;;25.02;100.00
13709;BME280;54933;51.908;7.730;2022-08-03T07:31:51;100937.97;;;25.02;100.00
13709;BME280;54933;51.908;7.730;2022-08-03T07:34:17;100945.91;;;25.04;100.00
13709;BME280;54933;51.908;7.730;2022-08-03T07:36:42;100944.22;;;25.03;100.00
13709;BME280;54933;51.908;7.730;2022-08-03T07:39:07;100935.25;;;25.02;100.00
13709;BME280;54933;51.908;7.730;2022-08-03T07:41:33;100939.03;;;25.01;100.00
13709;BME280;54933;51.908;7.730;2022-08-03T07:43:58;100931.69;;;25.02;100.00
13709;BME280;54933;51.908;7.730;2022-08-03T07:46:23;100945.06;;;25.03;100.00
13709;BME280;54933;51.908;7.730;2022-08-03T07:48:48;100937.16;;;25.02;100.00
13709;BME280;54933;51.908;7.730;2022-08-03T07:51:14;100942.59;;;25.02;100.00
13709;BME280;54933;51.908;7.730;2022-08-03T07:53:39;100938.78;;;25.03;100.00
13709;BME280;54933;51.908;7.730;2022-08-03T07:56:04;100940.69;;;25.02;100.00
13709;BME280;54933;51.908;7.730;2022-08-03T07:58:29;100944.22;;;25.03;100.00
13709;BME280;54933;51.908;7.730;2022-08-03T08:00:55;100945.91;;;25.04;100.00
13709;BME280;54933;51.908;7.730;2022-08-03T08:03:20;100944.22;;;25.03;100.00
13709;BME280;54933;51.908;7.730;2022-08-03T08:05:50;100938.78;;;25.03;100.00
13709;BME280;54933;51.908;7.730;2022-08-03T08:08:16;100940.47;;;25.04;100.00
13709;BME280;54933;51.908;7.730;2022-08-03T08:10:41;100946.69;;;25.04;100.00
13709;BME280;54933;51.908;7.730;2022-08-03T08:13:06;100937.97;;;25.02;100.00
13709;BME280;54933;51.908;7.730;2022-08-03T08:15:31;100934.19;;;25.03;100.00
13709;BME280;54933;51.908;7.730;2022-08-03T08:17:58;100939.63;;;25.03;100.00
13709;BME280;54933;51.908;7.730;2022-08-03T08:20:32;100934.19;;;25.03;100.00
13709;BME280;54933;51.908;7.730;2022-08-03T08:23:02;100943.19;;;25.04;100.00
13709;BME280;54933;51.908;7.730;2022-08-03T08:25:29;100938.78;;;25.03;100.00
13709;BME280;54933;51.908;7.730;2022-08-03T08:27:56;100945.91;;;25.04;100.00
13709;BME280;54933;51.908;7.730;2022-08-03T08:30:22;100945.91;;;25.04;100.00
13709;BME280;54933;51.908;7.730;2022-08-03T08:32:49;100949.41;;;25.04;100.00
13709;BME280;54933;51.908;7.730;2022-08-03T08:35:15;100943.19;;;25.04;100.00
13709;BME280;54933;51.908;7.730;2022-08-03T08:37:40;100945.91;;;25.04;100.00
13709;BME280;54933;51.908;7.730;2022-08-03T08:40:07;100944.81;;;25.05;100.00
13709;BME280;54933;51.908;7.730;2022-08-03T08:42:34;100944.81;;;25.05;100.00
13709;BME280;54933;51.908;7.730;2022-08-03T08:45:01;100948.38;;;25.05;100.00
13709;BME280;54933;51.908;7.730;2022-08-03T08:47:29;100943.78;;;25.06;100.00
13709;BME280;54933;51.908;7.730;2022-08-03T08:49:56;100942.09;;;25.05;100.00
13709;BME280;54933;51.908;7.730;2022-08-03T08:52:25;100952.97;;;25.05;100.00
13709;BME280;54933;51.908;7.730;2022-08-03T08:55:06;100943.78;;;25.06;100.00
13709;BME280;54933;51.908;7.730;2022-08-03T08:57:36;100957.38;;;25.06;100.00
13709;BME280;54933;51.908;7.730;2022-08-03T09:00:05;100949.22;;;25.06;100.00
13709;BME280;54933;51.908;7.730;2022-08-03T09:02:33;100949.22;;;25.06;100.00
13709;BME280;54933;51.908;7.730;2022-08-03T09:04:59;100948.13;;;25.07;100.00
13709;BME280;54933;51.908;7.730;2022-08-03T09:07:26;100941.84;;;25.06;100.00
13709;BME280;54933;51.908;7.730;2022-08-03T09:09:52;100950.00;;;25.06;100.00
13709;BME280;54933;51.908;7.730;2022-08-03T09:12:17;100945.41;;;25.07;100.00
13709;BME280;54933;51.908;7.730;2022-08-03T09:14:43;100944.34;;;25.08;100.00
13709;BME280;54933;51.908;7.730;2022-08-03T09:17:08;100943.53;;;25.07;100.00
13709;BME280;54933;51.908;7.730;2022-08-03T09:19:34;100947.88;;;25.08;100.00
13709;BME280;54933;51.908;7.730;2022-08-03T09:22:10;100938.91;;;25.08;100.00
13709;BME280;54933;51.908;7.730;2022-08-03T09:24:36;100947.06;;;25.08;100.00
13709;BME280;54933;51.908;7.730;2022-08-03T09:27:05;100938.91;;;25.08;100.00
13709;BME280;54933;51.908;7.730;2022-08-03T09:29:35;100941.63;;;25.08;100.00
13709;BME280;54933;51.908;7.730;2022-08-03T09:32:02;100934.28;;;25.08;100.00
13709;BME280;54933;51.908;7.730;2022-08-03T09:34:27;100937.00;;;25.08;100.00
13709;BME280;54933;51.908;7.730;2022-08-03T09:36:53;100934.28;;;25.08;100.00
13709;BME280;54933;51.908;7.730;2022-08-03T09:39:21;100940.56;;;25.09;100.00
13709;BME280;54933;51.908;7.730;2022-08-03T09:42:02;100935.94;;;25.09;100.00
13709;BME280;54933;51.908;7.730;2022-08-03T09:44:35;100932.41;;;25.09;100.00
13709;BME280;54933;51.908;7.730;2022-08-03T09:47:02;100939.50;;;25.10;100.00
13709;BME280;54933;51.908;7.730;2022-08-03T09:49:28;100932.41;;;25.09;100.00
13709;BME280;54933;51.908;7.730;2022-08-03T09:51:53;100936.78;;;25.10;100.00
13709;BME280;54933;51.908;7.730;2022-08-03T09:54:29;100934.06;;;25.10;100.00
13709;BME280;54933;51.908;7.730;2022-08-03T09:56:55;100939.50;;;25.10;100.00
13709;BME280;54933;51.908;7.730;2022-08-03T09:59:28;100944.94;;;25.10;100.00
13709;BME280;54933;51.908;7.730;2022-08-03T10:01:55;100921.53;;;25.09;100.00
13709;BME280;54933;51.908;7.730;2022-08-03T10:04:21;100929.69;;;25.09;100.00
13709;BME280;54933;51.908;7.730;2022-08-03T10:07:07;100934.88;;;25.10;100.00
13709;BME280;54933;51.908;7.730;2022-08-03T10:09:33;100935.69;;;25.11;100.00
13709;BME280;54933;51.908;7.730;2022-08-03T10:12:10;100932.41;;;25.09;100.00
13709;BME280;54933;51.908;7.730;2022-08-03T10:14:37;100934.88;;;25.10;100.00
13709;BME280;54933;51.908;7.730;2022-08-03T10:17:03;100930.25;;;25.11;100.00
13709;BME280;54933;51.908;7.730;2022-08-03T10:19:28;100928.63;;;25.10;100.00
13709;BME280;54933;51.908;7.730;2022-08-03T10:21:55;100932.97;;;25.11;100.00
13709;BME280;54933;51.908;7.730;2022-08-03T10:24:25;100929.44;;;25.10;100.00
13709;BME280;54933;51.908;7.730;2022-08-03T10:26:59;100936.53;;;25.11;100.00
13709;BME280;54933;51.908;7.730;2022-08-03T10:29:27;100932.97;;;25.11;100.00
13709;BME280;54933;51.908;7.730;2022-08-03T10:31:56;100919.38;;;25.11;100.00
13709;BME280;54933;51.908;7.730;2022-08-03T10:34:23;100925.66;;;25.11;100.00
13709;BME280;54933;51.908;7.730;2022-08-03T10:36:51;100920.22;;;25.11;100.00
13709;BME280;54933;51.908;7.730;2022-08-03T10:39:18;100926.50;;;25.12;100.00
13709;BME280;54933;51.908;7.730;2022-08-03T10:41:46;100926.50;;;25.12;100.00
13709;BME280;54933;51.908;7.730;2022-08-03T10:44:17;100919.16;;;25.12;100.00
13709;BME280;54933;51.908;7.730;2022-08-03T10:46:44;100910.16;;;25.12;100.00
13709;BME280;54933;51.908;7.730;2022-08-03T10:49:15;100918.31;;;25.12;100.00
13709;BME280;54933;51.908;7.730;2022-08-03T10:51:44;100917.25;;;25.13;100.00
13709;BME280;54933;51.908;7.730;2022-08-03T10:54:41;100916.44;;;25.12;100.00
13709;BME280;54933;51.908;7.730;2022-08-03T10:57:42;100913.47;;;25.14;100.00
13709;BME280;54933;51.908;7.730;2022-08-03T11:00:08;100909.09;;;25.13;100.00
13709;BME280;54933;51.908;7.730;2022-08-03T11:03:08;100907.22;;;25.13;100.00
13709;BME280;54933;51.908;7.730;2022-08-03T11:05:45;100902.59;;;25.14;100.00
13709;BME280;54933;51.908;7.730;2022-08-03T11:08:27;100897.16;;;25.14;100.00
13709;BME280;54933;51.908;7.730;2022-08-03T11:10:59;100896.31;;;25.13;100.00
13709;BME280;54933;51.908;7.730;2022-08-03T11:13:27;100902.59;;;25.14;100.00
13709;BME280;54933;51.908;7.730;2022-08-03T11:15:57;100899.88;;;25.14;100.00
13709;BME280;54933;51.908;7.730;2022-08-03T11:18:23;100898.22;;;25.13;100.00
13709;BME280;54933;51.908;7.730;2022-08-03T11:20:56;100897.97;;;25.14;100.00
13709;BME280;54933;51.908;7.730;2022-08-03T11:23:45;100895.00;;;25.16;100.00
13709;BME280;54933;51.908;7.730;2022-08-03T11:26:16;100897.97;;;25.14;100.00
13709;BME280;54933;51.908;7.730;2022-08-03T11:28:46;100893.38;;;25.15;100.00
13709;BME280;54933;51.908;7.730;2022-08-03T11:34:08;100896.09;;;25.15;100.00
13709;BME280;54933;51.908;7.730;2022-08-03T11:39:40;100894.19;;;25.15;100.00
13709;BME280;54933;51.908;7.730;2022-08-03T11:44:57;100893.38;;;25.15;100.00
13709;BME280;54933;51.908;7.730;2022-08-03T11:47:24;100893.38;;;25.15;100.00
13709;BME280;54933;51.908;7.730;2022-08-03T11:49:54;100895.00;;;25.16;100.00
13709;BME280;54933;51.908;7.730;2022-08-03T11:52:21;100889.56;;;25.16;100.00
13709;BME280;54933;51.908;7.730;2022-08-03T11:54:50;100895.00;;;25.16;100.00
13709;BME280;54933;51.908;7.730;2022-08-03T11:57:34;100889.56;;;25.16;100.00
13709;BME280;54933;51.908;7.730;2022-08-03T11:59:59;100893.97;;;25.17;100.00
13709;BME280;54933;51.908;7.730;2022-08-03T12:02:25;100888.53;;;25.17;100.00
13709;BME280;54933;51.908;7.730;2022-08-03T12:04:55;100884.13;;;25.16;100.00
13709;BME280;54933;51.908;7.730;2022-08-03T12:07:28;100884.13;;;25.16;100.00
13709;BME280;54933;51.908;7.730;2022-08-03T12:12:31;100901.28;;;25.16;100.00
13709;BME280;54933;51.908;7.730;2022-08-03T12:14:57;100891.25;;;25.17;100.00
13709;BME280;54933;51.908;7.730;2022-08-03T12:17:22;100892.88;;;25.18;100.00
13709;BME280;54933;51.908;7.730;2022-08-03T12:19:48;100885.81;;;25.17;100.00
13709;BME280;54933;51.908;7.730;2022-08-03T12:22:13;100874.91;;;25.17;100.00
13709;BME280;54933;51.908;7.730;2022-08-03T12:24:41;100876.56;;;25.18;100.00
13709;BME280;54933;51.908;7.730;2022-08-03T12:27:07;100882.84;;;25.18;100.00
13709;BME280;54933;51.908;7.730;2022-08-03T12:29:32;100883.88;;;25.17;100.00
13709;BME280;54933;51.908;7.730;2022-08-03T12:31:57;100882.00;;;25.18;100.00
13709;BME280;54933;51.908;7.730;2022-08-03T12:34:23;100874.69;;;25.18;100.00
13709;BME280;54933;51.908;7.730;2022-08-03T12:36:50;100881.16;;;25.17;100.00
13709;BME280;54933;51.908;7.730;2022-08-03T12:39:16;100878.22;;;25.19;100.00
13709;BME280;54933;51.908;7.730;2022-08-03T12:41:41;100872.78;;;25.19;100.00
13709;BME280;54933;51.908;7.730;2022-08-03T12:44:08;100871.97;;;25.18;100.00
13709;BME280;54933;51.908;7.730;2022-08-03T12:46:37;100870.06;;;25.19;100.00
13709;BME280;54933;51.908;7.730;2022-08-03T12:49:08;100874.44;;;25.20;100.00
13709;BME280;54933;51.908;7.730;2022-08-03T12:54:08;100869.00;;;25.20;100.00
13709;BME280;54933;51.908;7.730;2022-08-03T12:56:34;100861.91;;;25.19;100.00
13709;BME280;54933;51.908;7.730;2022-08-03T12:59:00;100865.44;;;25.19;100.00
13709;BME280;54933;51.908;7.730;2022-08-03T13:01:25;100863.56;;;25.20;100.00
13709;BME280;54933;51.908;7.730;2022-08-03T13:03:52;100858.94;;;25.20;100.00
13709;BME280;54933;51.908;7.730;2022-08-03T13:06:21;100864.38;;;25.20;100.00